sensor_id;sensor_type;location;lat;lon;timestamp;pressure;altitude;pressure_sealevel;temperature
53667;BMP280;39568;51.026;5.468;2023-04-25T00:00:59;100238.09;;;6.76
53667;BMP280;39568;51.026;5.468;2023-04-25T00:03:29;100232.56;;;6.74
53667;BMP280;39568;51.026;5.468;2023-04-25T00:05:57;100239.75;;;6.73
53667;BMP280;39568;51.026;5.468;2023-04-25T00:08:27;100229.31;;;6.64
53667;BMP280;39568;51.026;5.468;2023-04-25T00:11:01;100233.88;;;6.63
53667;BMP280;39568;51.026;5.468;2023-04-25T00:13:28;100232.59;;;6.59
53667;BMP280;39568;51.026;5.468;2023-04-25T00:15:56;100232.59;;;6.59
53667;BMP280;39568;51.026;5.468;2023-04-25T00:18:24;100230.97;;;6.61
53667;BMP280;39568;51.026;5.468;2023-04-25T00:20:54;100227.84;;;6.63
53667;BMP280;39568;51.026;5.468;2023-04-25T00:23:21;100227.41;;;6.64
53667;BMP280;39568;51.026;5.468;2023-04-25T00:25:49;100229.06;;;6.62
53667;BMP280;39568;51.026;5.468;2023-04-25T00:28:16;100230.78;;;6.65
53667;BMP280;39568;51.026;5.468;2023-04-25T00:30:43;100238.00;;;6.70
53667;BMP280;39568;51.026;5.468;2023-04-25T00:33:10;100229.63;;;6.72
53667;BMP280;39568;51.026;5.468;2023-04-25T00:35:38;100233.53;;;6.76
53667;BMP280;39568;51.026;5.468;2023-04-25T00:38:05;100235.91;;;6.74
53667;BMP280;39568;51.026;5.468;2023-04-25T00:40:33;100243.56;;;6.72
53667;BMP280;39568;51.026;5.468;2023-04-25T00:42:59;100236.91;;;6.77
53667;BMP280;39568;51.026;5.468;2023-04-25T00:45:28;100235.25;;;6.79
53667;BMP280;39568;51.026;5.468;2023-04-25T00:47:55;100233.78;;;6.78
53667;BMP280;39568;51.026;5.468;2023-04-25T00:50:22;100235.97;;;6.80
53667;BMP280;39568;51.026;5.468;2023-04-25T00:52:50;100238.63;;;6.80
53667;BMP280;39568;51.026;5.468;2023-04-25T00:55:17;100236.44;;;6.78
53667;BMP280;39568;51.026;5.468;2023-04-25T00:57:44;100239.56;;;6.77
53667;BMP280;39568;51.026;5.468;2023-04-25T01:00:13;100231.13;;;6.78
53667;BMP280;39568;51.026;5.468;2023-04-25T01:02:43;100233.53;;;6.76
53667;BMP280;39568;51.026;5.468;2023-04-25T01:05:10;100238.75;;;6.70
53667;BMP280;39568;51.026;5.468;2023-04-25T01:07:37;100242.84;;;6.72
53667;BMP280;39568;51.026;5.468;2023-04-25T01:10:06;100239.28;;;6.75
53667;BMP280;39568;51.026;5.468;2023-04-25T01:12:33;100235.38;;;6.70
53667;BMP280;39568;51.026;5.468;2023-04-25T01:15:01;100241.66;;;6.73
53667;BMP280;39568;51.026;5.468;2023-04-25T01:17:29;100246.75;;;6.76
53667;BMP280;39568;51.026;5.468;2023-04-25T01:19:56;100239.28;;;6.75
53667;BMP280;39568;51.026;5.468;2023-04-25T01:22:24;100235.91;;;6.74
53667;BMP280;39568;51.026;5.468;2023-04-25T01:24:51;100239.03;;;6.73
53667;BMP280;39568;51.026;5.468;2023-04-25T01:27:18;100237.34;;;6.75
53667;BMP280;39568;51.026;5.468;2023-04-25T01:29:46;100239.75;;;6.73
53667;BMP280;39568;51.026;5.468;2023-04-25T01:32:13;100241.47;;;6.76
53667;BMP280;39568;51.026;5.468;2023-04-25T01:34:43;100246.75;;;6.76
53667;BMP280;39568;51.026;5.468;2023-04-25T01:37:09;100240.94;;;6.72
53667;BMP280;39568;51.026;5.468;2023-04-25T01:39:38;100241.25;;;6.80
53667;BMP280;39568;51.026;5.468;2023-04-25T01:42:04;100241.66;;;6.73
53667;BMP280;39568;51.026;5.468;2023-04-25T01:44:31;100239.47;;;6.71
53667;BMP280;39568;51.026;5.468;2023-04-25T01:46:58;100243.19;;;6.79
53667;BMP280;39568;51.026;5.468;2023-04-25T01:49:25;100246.03;;;6.76
53667;BMP280;39568;51.026;5.468;2023-04-25T01:51:51;100247.69;;;6.73
53667;BMP280;39568;51.026;5.468;2023-04-25T01:54:18;100251.50;;;6.72
53667;BMP280;39568;51.026;5.468;2023-04-25T01:56:51;100253.88;;;6.70
53667;BMP280;39568;51.026;5.468;2023-04-25T01:59:18;100257.22;;;6.65
53667;BMP280;39568;51.026;5.468;2023-04-25T02:01:45;100262.03;;;6.66
53667;BMP280;39568;51.026;5.468;2023-04-25T02:04:12;100261.97;;;6.61
53667;BMP280;39568;51.026;5.468;2023-04-25T02:06:39;100277.09;;;6.60
53667;BMP280;39568;51.026;5.468;2023-04-25T02:09:08;100257.59;;;6.58
53667;BMP280;39568;51.026;5.468;2023-04-25T02:11:37;100277.53;;;6.59
53667;BMP280;39568;51.026;5.468;2023-04-25T02:14:14;100265.97;;;6.56
53667;BMP280;39568;51.026;5.468;2023-04-25T02:16:43;100273.84;;;6.51
53667;BMP280;39568;51.026;5.468;2023-04-25T02:19:11;100273.41;;;6.52
53667;BMP280;39568;51.026;5.468;2023-04-25T02:21:38;100272.13;;;6.48
53667;BMP280;39568;51.026;5.468;2023-04-25T02:24:06;100279.34;;;6.47
53667;BMP280;39568;51.026;5.468;2023-04-25T02:26:33;100277.91;;;6.46
53667;BMP280;39568;51.026;5.468;2023-04-25T02:28:59;100274.06;;;6.47
53667;BMP280;39568;51.026;5.468;2023-04-25T02:31:27;100278.16;;;6.48
53667;BMP280;39568;51.026;5.468;2023-04-25T02:33:54;100283.00;;;6.50
53667;BMP280;39568;51.026;5.468;2023-04-25T02:36:21;100276.97;;;6.49
53667;BMP280;39568;51.026;5.468;2023-04-25T02:38:47;100276.38;;;6.40
53667;BMP280;39568;51.026;5.468;2023-04-25T02:41:15;100281.00;;;6.45
53667;BMP280;39568;51.026;5.468;2023-04-25T02:43:45;100278.59;;;6.47
53667;BMP280;39568;51.026;5.468;2023-04-25T02:46:12;100278.78;;;6.43
53667;BMP280;39568;51.026;5.468;2023-04-25T02:48:40;100281.44;;;6.43
53667;BMP280;39568;51.026;5.468;2023-04-25T02:51:07;100272.06;;;6.42
53667;BMP280;39568;51.026;5.468;2023-04-25T02:53:35;100278.06;;;6.43
53667;BMP280;39568;51.026;5.468;2023-04-25T02:56:01;100282.84;;;6.39
53667;BMP280;39568;51.026;5.468;2023-04-25T02:58:28;100280.56;;;6.32
53667;BMP280;39568;51.026;5.468;2023-04-25T03:00:55;100280.56;;;6.32
53667;BMP280;39568;51.026;5.468;2023-04-25T03:03:21;100276.47;;;6.31
53667;BMP280;39568;51.026;5.468;2023-04-25T03:05:50;100277.16;;;6.26
53667;BMP280;39568;51.026;5.468;2023-04-25T03:08:17;100279.25;;;6.22
53667;BMP280;39568;51.026;5.468;2023-04-25T03:10:44;100275.59;;;6.19
53667;BMP280;39568;51.026;5.468;2023-04-25T03:13:10;100278.72;;;6.18
53667;BMP280;39568;51.026;5.468;2023-04-25T03:15:38;100280.84;;;6.13
53667;BMP280;39568;51.026;5.468;2023-04-25T03:18:05;100274.63;;;6.17
53667;BMP280;39568;51.026;5.468;2023-04-25T03:20:31;100282.53;;;6.17
53667;BMP280;39568;51.026;5.468;2023-04-25T03:22:59;100285.19;;;6.17
53667;BMP280;39568;51.026;5.468;2023-04-25T03:25:26;100283.00;;;6.15
53667;BMP280;39568;51.026;5.468;2023-04-25T03:27:53;100276.25;;;6.14
53667;BMP280;39568;51.026;5.468;2023-04-25T03:30:20;100280.34;;;6.15
53667;BMP280;39568;51.026;5.468;2023-04-25T03:32:47;100280.63;;;6.17
53667;BMP280;39568;51.026;5.468;2023-04-25T03:35:14;100272.94;;;6.13
53667;BMP280;39568;51.026;5.468;2023-04-25T03:37:43;100277.00;;;6.14
53667;BMP280;39568;51.026;5.468;2023-04-25T03:40:12;100277.69;;;6.15
53667;BMP280;39568;51.026;5.468;2023-04-25T03:42:39;100276.09;;;6.18
53667;BMP280;39568;51.026;5.468;2023-04-25T03:45:07;100281.56;;;6.14
53667;BMP280;39568;51.026;5.468;2023-04-25T03:47:34;100280.00;;;6.07
53667;BMP280;39568;51.026;5.468;2023-04-25T03:50:01;100280.56;;;6.11
53667;BMP280;39568;51.026;5.468;2023-04-25T03:52:30;100280.00;;;6.07
53667;BMP280;39568;51.026;5.468;2023-04-25T03:54:56;100288.41;;;6.06
53667;BMP280;39568;51.026;5.468;2023-04-25T03:57:31;100291.69;;;6.01
53667;BMP280;39568;51.026;5.468;2023-04-25T03:59:59;100294.09;;;5.99
53667;BMP280;39568;51.026;5.468;2023-04-25T04:02:26;100291.91;;;5.97
53667;BMP280;39568;51.026;5.468;2023-04-25T04:04:52;100298.09;;;5.94
53667;BMP280;39568;51.026;5.468;2023-04-25T04:07:21;100309.72;;;5.88
53667;BMP280;39568;51.026;5.468;2023-04-25T04:09:47;100305.84;;;5.83
53667;BMP280;39568;51.026;5.468;2023-04-25T04:12:15;100309.66;;;5.82
53667;BMP280;39568;51.026;5.468;2023-04-25T04:14:43;100314.66;;;5.80
53667;BMP280;39568;51.026;5.468;2023-04-25T04:17:10;100306.47;;;5.78
53667;BMP280;39568;51.026;5.468;2023-04-25T04:19:37;100307.41;;;5.75
53667;BMP280;39568;51.026;5.468;2023-04-25T04:22:03;100310.84;;;5.81
53667;BMP280;39568;51.026;5.468;2023-04-25T04:24:30;100316.88;;;5.82
53667;BMP280;39568;51.026;5.468;2023-04-25T04:26:57;100309.38;;;5.80
53667;BMP280;39568;51.026;5.468;2023-04-25T04:29:24;100324.34;;;5.83
53667;BMP280;39568;51.026;5.468;2023-04-25T04:31:52;100322.66;;;5.86
53667;BMP280;39568;51.026;5.468;2023-04-25T04:34:19;100321.03;;;5.88
53667;BMP280;39568;51.026;5.468;2023-04-25T04:36:47;100317.13;;;5.84
53667;BMP280;39568;51.026;5.468;2023-04-25T04:39:14;100319.06;;;5.83
53667;BMP280;39568;51.026;5.468;2023-04-25T04:41:41;100328.59;;;5.95
53667;BMP280;39568;51.026;5.468;2023-04-25T04:44:08;100324.22;;;5.92
53667;BMP280;39568;51.026;5.468;2023-04-25T04:46:37;100324.94;;;5.93
53667;BMP280;39568;51.026;5.468;2023-04-25T04:49:11;100341.97;;;5.92
53667;BMP280;39568;51.026;5.468;2023-04-25T04:51:43;100345.63;;;5.94
53667;BMP280;39568;51.026;5.468;2023-04-25T04:54:10;100347.59;;;5.99
53667;BMP280;39568;51.026;5.468;2023-04-25T04:56:37;100348.34;;;6.00
53667;BMP280;39568;51.026;5.468;2023-04-25T04:59:11;100337.84;;;6.05
53667;BMP280;39568;51.026;5.468;2023-04-25T05:01:38;100344.88;;;6.08
53667;BMP280;39568;51.026;5.468;2023-04-25T05:04:05;100344.94;;;6.14
53667;BMP280;39568;51.026;5.468;2023-04-25T05:06:33;100347.09;;;6.15
53667;BMP280;39568;51.026;5.468;2023-04-25T05:09:00;100355.13;;;6.21
53667;BMP280;39568;51.026;5.468;2023-04-25T05:11:26;100359.50;;;6.24
53667;BMP280;39568;51.026;5.468;2023-04-25T05:13:55;100351.19;;;6.31
53667;BMP280;39568;51.026;5.468;2023-04-25T05:16:24;100359.22;;;6.37
53667;BMP280;39568;51.026;5.468;2023-04-25T05:18:51;100369.59;;;6.40
53667;BMP280;39568;51.026;5.468;2023-04-25T05:21:17;100370.56;;;6.43
53667;BMP280;39568;51.026;5.468;2023-04-25T05:23:53;100376.72;;;6.34
53667;BMP280;39568;51.026;5.468;2023-04-25T05:26:22;100374.63;;;6.38
53667;BMP280;39568;51.026;5.468;2023-04-25T05:28:49;100398.84;;;6.37
53667;BMP280;39568;51.026;5.468;2023-04-25T05:31:16;100389.59;;;6.47
53667;BMP280;39568;51.026;5.468;2023-04-25T05:33:43;100401.63;;;6.48
53667;BMP280;39568;51.026;5.468;2023-04-25T05:36:09;100396.63;;;6.50
53667;BMP280;39568;51.026;5.468;2023-04-25T05:38:36;100400.16;;;6.61
53667;BMP280;39568;51.026;5.468;2023-04-25T05:41:06;100402.59;;;6.65
53667;BMP280;39568;51.026;5.468;2023-04-25T05:43:34;100399.56;;;6.72
53667;BMP280;39568;51.026;5.468;2023-04-25T05:46:00;100397.16;;;6.74
53667;BMP280;39568;51.026;5.468;2023-04-25T05:48:27;100404.53;;;6.85
53667;BMP280;39568;51.026;5.468;2023-04-25T05:50:54;100405.53;;;6.87
53667;BMP280;39568;51.026;5.468;2023-04-25T05:53:23;100408.44;;;6.89
53667;BMP280;39568;51.026;5.468;2023-04-25T05:55:50;100407.25;;;6.90
53667;BMP280;39568;51.026;5.468;2023-04-25T05:58:18;100417.16;;;6.95
53667;BMP280;39568;51.026;5.468;2023-04-25T06:00:45;100417.56;;;6.88
53667;BMP280;39568;51.026;5.468;2023-04-25T06:03:12;100404.97;;;6.83
53667;BMP280;39568;51.026;5.468;2023-04-25T06:05:40;100417.16;;;6.95
53667;BMP280;39568;51.026;5.468;2023-04-25T06:08:07;100417.56;;;7.08
53667;BMP280;39568;51.026;5.468;2023-04-25T06:10:34;100420.44;;;7.05
53667;BMP280;39568;51.026;5.468;2023-04-25T06:13:01;100424.88;;;7.19
53667;BMP280;39568;51.026;5.468;2023-04-25T06:15:30;100428.84;;;7.29
53667;BMP280;39568;51.026;5.468;2023-04-25T06:17:57;100424.97;;;7.24
53667;BMP280;39568;51.026;5.468;2023-04-25T06:20:24;100425.34;;;7.38
53667;BMP280;39568;51.026;5.468;2023-04-25T06:22:53;100434.31;;;7.46
53667;BMP280;39568;51.026;5.468;2023-04-25T06:25:19;100439.16;;;7.47
53667;BMP280;39568;51.026;5.468;2023-04-25T06:27:46;100438.69;;;7.49
53667;BMP280;39568;51.026;5.468;2023-04-25T06:30:13;100442.38;;;7.57
53667;BMP280;39568;51.026;5.468;2023-04-25T06:32:43;100448.19;;;7.61
53667;BMP280;39568;51.026;5.468;2023-04-25T06:35:13;100431.53;;;7.55
53667;BMP280;39568;51.026;5.468;2023-04-25T06:37:40;100442.31;;;7.71
53667;BMP280;39568;51.026;5.468;2023-04-25T06:40:09;100441.69;;;7.88
53667;BMP280;39568;51.026;5.468;2023-04-25T06:42:36;100431.97;;;8.05
53667;BMP280;39568;51.026;5.468;2023-04-25T06:45:03;100447.41;;;8.06
53667;BMP280;39568;51.026;5.468;2023-04-25T06:47:30;100449.78;;;8.35
53667;BMP280;39568;51.026;5.468;2023-04-25T06:49:58;100451.84;;;8.20
53667;BMP280;39568;51.026;5.468;2023-04-25T06:52:27;100451.47;;;8.02
53667;BMP280;39568;51.026;5.468;2023-04-25T06:54:57;100455.09;;;8.04
53667;BMP280;39568;51.026;5.468;2023-04-25T06:57:25;100466.78;;;7.92
53667;BMP280;39568;51.026;5.468;2023-04-25T06:59:52;100469.44;;;7.92
53667;BMP280;39568;51.026;5.468;2023-04-25T07:02:19;100468.69;;;7.92
53667;BMP280;39568;51.026;5.468;2023-04-25T07:04:47;100471.72;;;7.79
53667;BMP280;39568;51.026;5.468;2023-04-25T07:07:18;100477.69;;;8.00
53667;BMP280;39568;51.026;5.468;2023-04-25T07:09:45;100469.72;;;8.25
53667;BMP280;39568;51.026;5.468;2023-04-25T07:12:11;100465.75;;;8.47
53667;BMP280;39568;51.026;5.468;2023-04-25T07:14:38;100479.19;;;8.74
53667;BMP280;39568;51.026;5.468;2023-04-25T07:17:08;100478.06;;;8.92
53667;BMP280;39568;51.026;5.468;2023-04-25T07:19:37;100482.31;;;8.73
53667;BMP280;39568;51.026;5.468;2023-04-25T07:22:05;100487.34;;;8.65
53667;BMP280;39568;51.026;5.468;2023-04-25T07:24:33;100488.13;;;8.77
53667;BMP280;39568;51.026;5.468;2023-04-25T07:27:00;100498.03;;;8.82
53667;BMP280;39568;51.026;5.468;2023-04-25T07:29:28;100501.38;;;8.40
53667;BMP280;39568;51.026;5.468;2023-04-25T07:31:55;100497.47;;;8.67
53667;BMP280;39568;51.026;5.468;2023-04-25T07:34:21;100507.56;;;9.05
53667;BMP280;39568;51.026;5.468;2023-04-25T07:36:48;100499.03;;;8.90
53667;BMP280;39568;51.026;5.468;2023-04-25T07:39:15;100498.63;;;9.08
53667;BMP280;39568;51.026;5.468;2023-04-25T07:41:43;100501.28;;;9.08
53667;BMP280;39568;51.026;5.468;2023-04-25T07:44:14;100507.88;;;9.29
53667;BMP280;39568;51.026;5.468;2023-04-25T07:46:41;100499.66;;;8.74
53667;BMP280;39568;51.026;5.468;2023-04-25T07:49:08;100504.81;;;8.88
53667;BMP280;39568;51.026;5.468;2023-04-25T07:51:35;100506.75;;;9.47
53667;BMP280;39568;51.026;5.468;2023-04-25T07:54:02;100508.28;;;9.98
53667;BMP280;39568;51.026;5.468;2023-04-25T07:56:28;100517.94;;;10.12
53667;BMP280;39568;51.026;5.468;2023-04-25T07:58:57;100520.38;;;10.10
53667;BMP280;39568;51.026;5.468;2023-04-25T08:01:23;100526.63;;;10.18
53667;BMP280;39568;51.026;5.468;2023-04-25T08:03:50;100528.56;;;10.01
53667;BMP280;39568;51.026;5.468;2023-04-25T08:06:17;100530.97;;;10.27
53667;BMP280;39568;51.026;5.468;2023-04-25T08:08:44;100528.81;;;10.08
53667;BMP280;39568;51.026;5.468;2023-04-25T08:11:11;100536.50;;;10.56
53667;BMP280;39568;51.026;5.468;2023-04-25T08:13:38;100547.41;;;9.92
53667;BMP280;39568;51.026;5.468;2023-04-25T08:16:10;100539.91;;;10.40
53667;BMP280;39568;51.026;5.468;2023-04-25T08:18:41;100548.34;;;10.66
53667;BMP280;39568;51.026;5.468;2023-04-25T08:21:08;100538.03;;;11.15
53667;BMP280;39568;51.026;5.468;2023-04-25T08:23:36;100542.94;;;11.00
53667;BMP280;39568;51.026;5.468;2023-04-25T08:26:03;100556.22;;;11.05
53667;BMP280;39568;51.026;5.468;2023-04-25T08:28:31;100549.72;;;10.90
53667;BMP280;39568;51.026;5.468;2023-04-25T08:30:57;100554.59;;;10.86
53667;BMP280;39568;51.026;5.468;2023-04-25T08:33:26;100560.47;;;10.34
53667;BMP280;39568;51.026;5.468;2023-04-25T08:35:52;100564.75;;;9.71
53667;BMP280;39568;51.026;5.468;2023-04-25T08:38:21;100568.53;;;9.42
53667;BMP280;39568;51.026;5.468;2023-04-25T08:40:50;100576.19;;;9.34
53667;BMP280;39568;51.026;5.468;2023-04-25T08:43:19;100586.94;;;9.09
53667;BMP280;39568;51.026;5.468;2023-04-25T08:45:46;100588.13;;;8.65
53667;BMP280;39568;51.026;5.468;2023-04-25T08:48:17;100600.97;;;8.78
53667;BMP280;39568;51.026;5.468;2023-04-25T08:50:49;100586.22;;;9.08
53667;BMP280;39568;51.026;5.468;2023-04-25T08:53:22;100588.41;;;8.73
53667;BMP280;39568;51.026;5.468;2023-04-25T08:55:50;100606.00;;;9.07
53667;BMP280;39568;51.026;5.468;2023-04-25T08:58:18;100594.50;;;9.21
53667;BMP280;39568;51.026;5.468;2023-04-25T09:00:46;100606.59;;;9.87
53667;BMP280;39568;51.026;5.468;2023-04-25T09:03:13;100603.22;;;9.86
53667;BMP280;39568;51.026;5.468;2023-04-25T09:05:40;100612.91;;;10.11
53667;BMP280;39568;51.026;5.468;2023-04-25T09:08:08;100604.72;;;10.43
53667;BMP280;39568;51.026;5.468;2023-04-25T09:10:37;100618.75;;;10.76
53667;BMP280;39568;51.026;5.468;2023-04-25T09:13:06;100626.72;;;10.76
53667;BMP280;39568;51.026;5.468;2023-04-25T09:15:47;100621.91;;;10.53
53667;BMP280;39568;51.026;5.468;2023-04-25T09:18:14;100632.53;;;10.47
53667;BMP280;39568;51.026;5.468;2023-04-25T09:20:48;100634.22;;;10.84
53667;BMP280;39568;51.026;5.468;2023-04-25T09:23:18;100649.44;;;10.77
53667;BMP280;39568;51.026;5.468;2023-04-25T09:25:50;100641.13;;;11.20
53667;BMP280;39568;51.026;5.468;2023-04-25T09:28:25;100633.84;;;11.26
53667;BMP280;39568;51.026;5.468;2023-04-25T09:30:55;100642.16;;;12.45
53667;BMP280;39568;51.026;5.468;2023-04-25T09:33:27;100639.72;;;13.19
53667;BMP280;39568;51.026;5.468;2023-04-25T09:36:02;100645.06;;;13.75
53667;BMP280;39568;51.026;5.468;2023-04-25T09:38:32;100630.66;;;11.90
53667;BMP280;39568;51.026;5.468;2023-04-25T09:40:59;100647.25;;;10.98
53667;BMP280;39568;51.026;5.468;2023-04-25T09:43:27;100640.50;;;12.90
53667;BMP280;39568;51.026;5.468;2023-04-25T09:45:55;100643.09;;;14.52
53667;BMP280;39568;51.026;5.468;2023-04-25T09:48:26;100634.81;;;15.63
53667;BMP280;39568;51.026;5.468;2023-04-25T09:51:11;100647.41;;;12.80
53667;BMP280;39568;51.026;5.468;2023-04-25T09:53:41;100650.16;;;11.74
53667;BMP280;39568;51.026;5.468;2023-04-25T09:56:09;100655.84;;;11.43
53667;BMP280;39568;51.026;5.468;2023-04-25T09:58:37;100658.09;;;11.17
53667;BMP280;39568;51.026;5.468;2023-04-25T10:01:05;100656.47;;;10.64
53667;BMP280;39568;51.026;5.468;2023-04-25T10:03:35;100675.81;;;10.42
53667;BMP280;39568;51.026;5.468;2023-04-25T10:06:05;100665.56;;;10.07
53667;BMP280;39568;51.026;5.468;2023-04-25T10:08:35;100678.13;;;9.90
53667;BMP280;39568;51.026;5.468;2023-04-25T10:11:05;100680.69;;;9.79
53667;BMP280;39568;51.026;5.468;2023-04-25T10:13:33;100688.81;;;9.53
53667;BMP280;39568;51.026;5.468;2023-04-25T10:16:01;100684.72;;;9.58
53667;BMP280;39568;51.026;5.468;2023-04-25T10:18:29;100696.16;;;9.70
53667;BMP280;39568;51.026;5.468;2023-04-25T10:20:58;100688.91;;;9.70
53667;BMP280;39568;51.026;5.468;2023-04-25T10:23:26;100691.28;;;9.63
53667;BMP280;39568;51.026;5.468;2023-04-25T10:25:53;100680.56;;;9.46
53667;BMP280;39568;51.026;5.468;2023-04-25T10:28:23;100681.63;;;9.23
53667;BMP280;39568;51.026;5.468;2023-04-25T10:30:57;100699.38;;;9.06
53667;BMP280;39568;51.026;5.468;2023-04-25T10:33:34;100703.56;;;8.86
53667;BMP280;39568;51.026;5.468;2023-04-25T10:36:09;100708.63;;;8.90
53667;BMP280;39568;51.026;5.468;2023-04-25T10:38:37;100709.63;;;8.41
53667;BMP280;39568;51.026;5.468;2023-04-25T10:41:04;100703.53;;;8.35
53667;BMP280;39568;51.026;5.468;2023-04-25T10:43:36;100703.94;;;8.28
53667;BMP280;39568;51.026;5.468;2023-04-25T10:46:12;100712.63;;;8.08
53667;BMP280;39568;51.026;5.468;2023-04-25T10:48:45;100710.38;;;8.01
53667;BMP280;39568;51.026;5.468;2023-04-25T10:51:17;100702.63;;;7.98
53667;BMP280;39568;51.026;5.468;2023-04-25T10:53:47;100699.13;;;8.06
53667;BMP280;39568;51.026;5.468;2023-04-25T10:56:21;100711.84;;;8.22
53667;BMP280;39568;51.026;5.468;2023-04-25T10:58:49;100711.84;;;8.22
53667;BMP280;39568;51.026;5.468;2023-04-25T11:01:19;100709.47;;;8.50
53667;BMP280;39568;51.026;5.468;2023-04-25T11:03:47;100716.53;;;8.59
53667;BMP280;39568;51.026;5.468;2023-04-25T11:06:22;100713.88;;;8.59
53667;BMP280;39568;51.026;5.468;2023-04-25T11:08:50;100708.53;;;8.79
53667;BMP280;39568;51.026;5.468;2023-04-25T11:11:18;100712.81;;;8.96
53667;BMP280;39568;51.026;5.468;2023-04-25T11:13:49;100715.16;;;9.20
53667;BMP280;39568;51.026;5.468;2023-04-25T11:16:16;100700.75;;;9.75
53667;BMP280;39568;51.026;5.468;2023-04-25T11:18:43;100703.06;;;10.09
53667;BMP280;39568;51.026;5.468;2023-04-25T11:21:09;100698.75;;;10.34
53667;BMP280;39568;51.026;5.468;2023-04-25T11:23:36;100702.19;;;10.62
53667;BMP280;39568;51.026;5.468;2023-04-25T11:26:03;100706.06;;;10.95
53667;BMP280;39568;51.026;5.468;2023-04-25T11:28:30;100707.97;;;10.55
53667;BMP280;39568;51.026;5.468;2023-04-25T11:31:00;100724.19;;;11.13
53667;BMP280;39568;51.026;5.468;2023-04-25T11:33:27;100712.13;;;12.32
53667;BMP280;39568;51.026;5.468;2023-04-25T11:35:54;100712.03;;;12.73
53667;BMP280;39568;51.026;5.468;2023-04-25T11:38:22;100715.63;;;13.05
53667;BMP280;39568;51.026;5.468;2023-04-25T11:40:52;100717.84;;;14.82
53667;BMP280;39568;51.026;5.468;2023-04-25T11:43:20;100722.25;;;15.79
53667;BMP280;39568;51.026;5.468;2023-04-25T11:45:51;100711.53;;;16.97
53667;BMP280;39568;51.026;5.468;2023-04-25T11:48:20;100715.56;;;20.13
53667;BMP280;39568;51.026;5.468;2023-04-25T11:50:46;100716.09;;;22.84
53667;BMP280;39568;51.026;5.468;2023-04-25T11:53:13;100708.88;;;22.58
53667;BMP280;39568;51.026;5.468;2023-04-25T11:55:39;100706.41;;;18.95
53667;BMP280;39568;51.026;5.468;2023-04-25T11:58:06;100708.56;;;19.29
53667;BMP280;39568;51.026;5.468;2023-04-25T12:00:33;100703.47;;;16.69
53667;BMP280;39568;51.026;5.468;2023-04-25T12:03:00;100701.06;;;16.30
53667;BMP280;39568;51.026;5.468;2023-04-25T12:05:32;100687.88;;;15.77
53667;BMP280;39568;51.026;5.468;2023-04-25T12:08:12;100697.88;;;14.83
53667;BMP280;39568;51.026;5.468;2023-04-25T12:10:40;100714.03;;;14.14
53667;BMP280;39568;51.026;5.468;2023-04-25T12:13:20;100708.88;;;13.66
53667;BMP280;39568;51.026;5.468;2023-04-25T12:15:49;100708.28;;;13.11
53667;BMP280;39568;51.026;5.468;2023-04-25T12:18:19;100709.25;;;11.78
53667;BMP280;39568;51.026;5.468;2023-04-25T12:20:46;100731.19;;;10.55
53667;BMP280;39568;51.026;5.468;2023-04-25T12:23:13;100729.06;;;9.89
53667;BMP280;39568;51.026;5.468;2023-04-25T12:25:40;100735.44;;;9.60
53667;BMP280;39568;51.026;5.468;2023-04-25T12:28:13;100739.97;;;9.48
53667;BMP280;39568;51.026;5.468;2023-04-25T12:30:52;100741.63;;;9.46
53667;BMP280;39568;51.026;5.468;2023-04-25T12:33:19;100743.50;;;9.77
53667;BMP280;39568;51.026;5.468;2023-04-25T12:35:47;100744.59;;;10.07
53667;BMP280;39568;51.026;5.468;2023-04-25T12:38:20;100751.66;;;10.15
53667;BMP280;39568;51.026;5.468;2023-04-25T12:40:46;100753.34;;;10.18
53667;BMP280;39568;51.026;5.468;2023-04-25T12:43:13;100746.31;;;10.15
53667;BMP280;39568;51.026;5.468;2023-04-25T12:45:40;100765.84;;;9.96
53667;BMP280;39568;51.026;5.468;2023-04-25T12:48:07;100753.44;;;9.82
53667;BMP280;39568;51.026;5.468;2023-04-25T12:50:34;100756.34;;;9.78
53667;BMP280;39568;51.026;5.468;2023-04-25T12:53:02;100758.34;;;10.00
53667;BMP280;39568;51.026;5.468;2023-04-25T12:55:29;100749.72;;;10.16
53667;BMP280;39568;51.026;5.468;2023-04-25T12:57:55;100748.38;;;10.54
53667;BMP280;39568;51.026;5.468;2023-04-25T13:00:22;100746.97;;;10.92
53667;BMP280;39568;51.026;5.468;2023-04-25T13:02:48;100744.72;;;11.62
53667;BMP280;39568;51.026;5.468;2023-04-25T13:05:19;100739.66;;;12.46
53667;BMP280;39568;51.026;5.468;2023-04-25T13:07:46;100744.25;;;12.51
53667;BMP280;39568;51.026;5.468;2023-04-25T13:10:14;100745.34;;;13.20
53667;BMP280;39568;51.026;5.468;2023-04-25T13:12:43;100743.13;;;13.00
53667;BMP280;39568;51.026;5.468;2023-04-25T13:15:09;100744.34;;;12.69
53667;BMP280;39568;51.026;5.468;2023-04-25T13:17:36;100752.13;;;13.70
53667;BMP280;39568;51.026;5.468;2023-04-25T13:20:03;100752.13;;;14.39
53667;BMP280;39568;51.026;5.468;2023-04-25T13:22:32;100749.97;;;13.44
53667;BMP280;39568;51.026;5.468;2023-04-25T13:24:59;100751.22;;;14.94
53667;BMP280;39568;51.026;5.468;2023-04-25T13:27:27;100752.28;;;16.11
53667;BMP280;39568;51.026;5.468;2023-04-25T13:29:53;100739.66;;;16.96
53667;BMP280;39568;51.026;5.468;2023-04-25T13:32:20;100747.03;;;15.72
53667;BMP280;39568;51.026;5.468;2023-04-25T13:34:46;100746.16;;;14.91
53667;BMP280;39568;51.026;5.468;2023-04-25T13:37:13;100751.03;;;15.18
53667;BMP280;39568;51.026;5.468;2023-04-25T13:39:40;100747.72;;;15.25
53667;BMP280;39568;51.026;5.468;2023-04-25T13:42:10;100745.25;;;15.01
53667;BMP280;39568;51.026;5.468;2023-04-25T13:44:38;100758.47;;;14.54
53667;BMP280;39568;51.026;5.468;2023-04-25T13:47:05;100760.00;;;13.81
53667;BMP280;39568;51.026;5.468;2023-04-25T13:49:34;100758.72;;;13.45
53667;BMP280;39568;51.026;5.468;2023-04-25T13:52:00;100756.75;;;13.88
53667;BMP280;39568;51.026;5.468;2023-04-25T13:54:27;100760.78;;;14.32
53667;BMP280;39568;51.026;5.468;2023-04-25T13:56:53;100747.31;;;15.08
53667;BMP280;39568;51.026;5.468;2023-04-25T13:59:23;100754.16;;;14.33
53667;BMP280;39568;51.026;5.468;2023-04-25T14:01:51;100747.81;;;14.94
53667;BMP280;39568;51.026;5.468;2023-04-25T14:04:18;100755.84;;;15.46
53667;BMP280;39568;51.026;5.468;2023-04-25T14:06:44;100768.44;;;16.18
53667;BMP280;39568;51.026;5.468;2023-04-25T14:09:11;100763.50;;;16.71